LEZL/SVQ METAR and TAF weather

Enter ICAO airport designator
Station Type Date Time Source
LEZL METAR 2019/07/17 18:30 UTC NOAA

LEZL 171830Z 23013KT CAVOK 27/15 Q1013 NOSIG


Station Type Date Time Source
LEZL Decoded METAR 2019/07/17 18:30 UTC NOAA

Sevilla / San Pablo, Spain (LEZL) 37-25N 005-54W 31M
Jul 17, 2019 - 02:30 PM EDT / 2019.07.17 1830 UTC
Wind: from the SW (230 degrees) at 15 MPH (13 KT):0
Visibility: greater than 7 mile(s):0
Temperature: 80 F (27 C)
Dew Point: 59 F (15 C)
Relative Humidity: 47%
Pressure (altimeter): 29.91 in. Hg (1013 hPa)
ob: LEZL 171830Z 23013KT CAVOK 27/15 Q1013 NOSIG
cycle: 18

Station Type Date Time Source
LEZL TAF 2019/07/17 15:27 UTC NOAA

TAF LEZL 171400Z 1715/1815 21010KT CAVOK TX34/1815Z TN18/1805Z
BECMG 1723/1802 VRB03KT PROB30
TEMPO 1803/1808 BKN010

Example: see airport list